Turtle Lake, Minnesota
Current Conditions -  °F | °C
As of 6:35 AM on Wednesday 26 Nov 2014 (Local Time) from KY49 Reporting Station
Overcast Overcast  
Wind Chill:   Ceiling: 1300
Heat Index: 14°   Visibility: 10mi
Dew Point:   Wind: 8mph
Humidity: 82%   Direction: 350°N
Pressure: 30.16"   Gusts: NA
Location:  47.0507°N, 94.6083°W
Report Text: KY49 261235Z AUTO 35007KT 10SM OVC013 M10/M13 A3016 RMK AO2 T11021127
Loading
Personal Weather Stations






























Interactive Weather Map New forecast layout! Learn more

10-Day Weather Forecast

Advertisements
Track Severe Weather on mobile